Time;durP1;ratioP1;P1;durP2;ratioP2;P2;SDS_P1;SDS_P2;PMS_P1;PMS_P2;Temp;Humidity;BMP_temperature;BMP_pressure;BME280_temperature;BME280_humidity;BME280_pressure;Samples;Min_cycle;Max_cycle;Signal;HPM_P1;HPM_P2
2024/01/09 00:00:59;;;;;;;17.50;13.30;;;;;;;-13.86;81.14;97873.83;108239;1281;26764;-83
2024/01/09 00:03:40;;;;;;;22.30;12.70;;;;;;;-13.88;81.32;97877.66;108372;1281;24500;-83
2024/01/09 00:06:13;;;;;;;15.60;13.20;;;;;;;-13.90;81.09;97885.83;108356;1283;138825;-83
2024/01/09 00:08:40;;;;;;;18.60;14.50;;;;;;;-13.94;81.12;97887.83;108416;1270;22578;-84
2024/01/09 00:11:12;;;;;;;20.50;15.00;;;;;;;-13.97;81.06;97887.16;108406;1264;138689;-85
2024/01/09 00:13:39;;;;;;;20.50;13.10;;;;;;;-13.98;81.26;97884.66;110001;1279;22748;-85
2024/01/09 00:16:05;;;;;;;15.50;13.40;;;;;;;-14.01;80.77;97888.29;109831;1277;139443;-85
2024/01/09 00:18:32;;;;;;;16.60;13.30;;;;;;;-14.02;81.33;97894.62;109991;1270;22107;-85
2024/01/09 00:20:58;;;;;;;19.00;15.20;;;;;;;-13.97;81.09;97900.14;109054;1276;25292;-84
2024/01/09 00:23:25;;;;;;;19.70;12.70;;;;;;;-13.96;81.07;97898.81;108265;1282;138814;-84
2024/01/09 00:25:51;;;;;;;23.80;15.30;;;;;;;-13.96;80.96;97901.31;108340;1283;22583;-85
2024/01/09 00:28:18;;;;;;;18.00;13.60;;;;;;;-13.97;80.88;97906.98;108271;1281;138925;-84
2024/01/09 00:30:45;;;;;;;27.80;17.20;;;;;;;-13.99;81.03;97901.80;108415;1279;24201;-85
2024/01/09 00:33:11;;;;;;;18.70;14.70;;;;;;;-13.99;80.99;97905.64;108335;1281;22545;-84
2024/01/09 00:35:38;;;;;;;21.20;13.10;;;;;;;-14.01;81.01;97907.44;108323;1276;139470;-84
2024/01/09 00:38:04;;;;;;;19.20;15.10;;;;;;;-14.04;80.98;97912.60;108399;1261;22638;-84
2024/01/09 00:40:31;;;;;;;38.90;22.40;;;;;;;-14.09;81.15;97913.09;108364;1282;139696;-84
2024/01/09 00:42:57;;;;;;;24.60;18.10;;;;;;;-14.07;82.02;97914.60;108366;1282;22530;-85
2024/01/09 00:45:24;;;;;;;23.20;16.10;;;;;;;-14.06;81.56;97920.92;108511;1281;25579;-85
2024/01/09 00:47:50;;;;;;;19.00;15.00;;;;;;;-14.05;81.93;97920.60;108271;1281;139309;-84
2024/01/09 00:50:17;;;;;;;23.10;16.30;;;;;;;-14.06;81.51;97926.27;108435;1283;22644;-83
2024/01/09 00:52:43;;;;;;;28.30;17.60;;;;;;;-14.06;81.43;97925.76;108402;1281;138676;-83
2024/01/09 00:55:12;;;;;;;21.90;15.00;;;;;;;-14.06;81.24;97935.25;108422;1282;22527;-82
2024/01/09 00:57:38;;;;;;;20.80;13.80;;;;;;;-14.10;81.01;97937.73;108420;1281;22549;-84
2024/01/09 01:00:05;;;;;;;21.20;15.40;;;;;;;-14.17;80.77;97943.03;108450;1281;138666;-84
2024/01/09 01:02:32;;;;;;;27.30;18.10;;;;;;;-14.21;80.85;97940.02;108339;1282;22534;-84
2024/01/09 01:04:58;;;;;;;19.80;13.70;;;;;;;-14.23;81.06;97941.02;108278;1280;139207;-83
2024/01/09 01:07:25;;;;;;;19.00;13.60;;;;;;;-14.23;81.06;97941.67;108446;1282;22813;-84
2024/01/09 01:09:52;;;;;;;23.80;15.90;;;;;;;-14.25;81.10;97944.67;108531;1281;22563;-83
2024/01/09 01:12:19;;;;;;;28.10;17.10;;;;;;;-14.27;81.08;97943.84;108456;1282;22578;-82
2024/01/09 01:14:46;;;;;;;20.40;14.30;;;;;;;-14.24;81.23;97941.01;108363;1282;22543;-82
2024/01/09 01:17:12;;;;;;;24.90;17.60;;;;;;;-14.25;81.05;97939.85;108275;1283;138834;-84
2024/01/09 01:19:39;;;;;;;18.80;14.40;;;;;;;-14.30;81.08;97937.50;108456;1281;22549;-84
2024/01/09 01:22:06;;;;;;;17.00;12.50;;;;;;;-14.33;80.66;97939.98;108430;1277;138809;-83
2024/01/09 01:24:32;;;;;;;19.20;13.70;;;;;;;-14.38;80.73;97941.77;108378;1282;22974;-83
2024/01/09 01:26:59;;;;;;;20.20;15.80;;;;;;;-14.43;80.72;97940.77;108455;1282;22552;-84
2024/01/09 01:29:26;;;;;;;23.10;15.40;;;;;;;-14.45;80.82;97946.95;108399;1281;138705;-84
2024/01/09 01:31:53;;;;;;;22.40;16.30;;;;;;;-14.47;80.92;97939.77;108573;1274;24228;-84
2024/01/09 01:34:19;;;;;;;26.50;16.30;;;;;;;-14.46;81.86;97935.29;108328;1276;139469;-84
2024/01/09 01:36:47;;;;;;;22.10;15.70;;;;;;;-14.46;81.41;97931.13;108371;1282;22520;-84
2024/01/09 01:39:13;;;;;;;21.80;16.20;;;;;;;-14.47;81.04;97927.79;108389;1282;22571;-85
2024/01/09 01:41:40;;;;;;;21.40;15.40;;;;;;;-14.48;80.98;97929.95;108203;1282;138812;-84
2024/01/09 01:44:13;;;;;;;29.90;16.90;;;;;;;-14.52;80.65;97936.58;108462;1277;22533;-84
2024/01/09 01:46:41;;;;;;;25.30;17.10;;;;;;;-14.55;81.10;97937.07;108253;1282;138686;-85
2024/01/09 01:49:07;;;;;;;23.90;14.80;;;;;;;-14.58;80.87;97936.55;108442;1281;22531;-85
2024/01/09 01:51:34;;;;;;;18.40;14.10;;;;;;;-14.62;81.04;97938.70;108353;1281;25471;-84
2024/01/09 01:54:00;;;;;;;20.40;15.20;;;;;;;-14.64;81.01;97942.36;108198;1277;138853;-85
2024/01/09 01:56:27;;;;;;;23.50;15.40;;;;;;;-14.68;80.82;97943.81;108341;1276;22547;-84
2024/01/09 01:58:54;;;;;;;17.20;13.10;;;;;;;-14.73;81.13;97941.13;108273;1277;138764;-84
2024/01/09 02:01:20;;;;;;;21.40;15.10;;;;;;;-14.76;80.93;97941.29;108492;1276;22571;-85
2024/01/09 02:03:47;;;;;;;17.70;13.80;;;;;;;-14.78;80.95;97937.77;108470;1276;22564;-85
2024/01/09 02:06:13;;;;;;;16.70;13.20;;;;;;;-14.80;81.06;97937.11;108202;1276;139116;-84
2024/01/09 02:08:41;;;;;;;19.50;13.70;;;;;;;-14.81;80.95;97934.91;108449;1276;22531;-84
2024/01/09 02:11:09;;;;;;;14.10;11.60;;;;;;;-14.81;81.16;97932.59;108264;1278;138699;-84
2024/01/09 02:13:36;;;;;;;23.80;15.50;;;;;;;-14.84;80.97;97936.89;108345;1282;22526;-85
2024/01/09 02:16:03;;;;;;;16.60;12.50;;;;;;;-14.83;80.93;97933.23;108344;1282;139361;-85
2024/01/09 02:18:29;;;;;;;23.50;15.30;;;;;;;-14.85;81.27;97936.72;108341;1275;22547;-85
2024/01/09 02:20:56;;;;;;;23.90;16.20;;;;;;;-14.88;81.45;97934.71;108449;1282;22545;-85
2024/01/09 02:23:23;;;;;;;20.40;13.00;;;;;;;-14.88;81.28;97929.73;108198;1281;138902;-85
2024/01/09 02:25:49;;;;;;;21.40;13.90;;;;;;;-14.90;81.23;97930.21;108315;1275;22581;-84
2024/01/09 02:28:33;;;;;;;18.10;13.90;;;;;;;-14.91;81.04;97933.04;108282;1280;139949;-84
2024/01/09 02:31:00;;;;;;;22.90;16.60;;;;;;;-14.92;81.08;97933.03;108493;1281;22564;-85
2024/01/09 02:33:27;;;;;;;25.70;17.80;;;;;;;-14.89;81.13;97934.05;108368;1282;23902;-85
2024/01/09 02:35:54;;;;;;;14.00;12.00;;;;;;;-14.89;81.61;97931.89;108396;1270;138793;-85
2024/01/09 02:38:20;;;;;;;24.40;17.20;;;;;;;-14.89;81.07;97935.70;108480;1274;22548;-85
2024/01/09 02:40:47;;;;;;;19.60;14.40;;;;;;;-14.91;81.11;97934.04;108360;1276;138704;-84
2024/01/09 02:43:13;;;;;;;21.60;15.30;;;;;;;-14.92;81.00;97931.20;108424;1282;22528;-85
2024/01/09 02:45:40;;;;;;;20.70;14.60;;;;;;;-14.95;81.23;97937.02;108541;1274;24347;-85
2024/01/09 02:48:07;;;;;;;19.80;15.50;;;;;;;-14.96;81.38;97929.51;108273;1270;139646;-85
2024/01/09 02:50:33;;;;;;;19.50;15.10;;;;;;;-14.94;81.25;97929.70;108390;1281;22584;-85
2024/01/09 02:53:00;;;;;;;18.50;13.70;;;;;;;-14.96;81.17;97932.66;108398;1275;138706;-85
2024/01/09 02:55:26;;;;;;;22.40;14.20;;;;;;;-15.01;80.79;97931.13;108382;1278;22935;-85
2024/01/09 02:57:53;;;;;;;21.20;14.60;;;;;;;-15.05;80.97;97934.44;108383;1282;22946;-83
2024/01/09 03:00:20;;;;;;;23.20;15.70;;;;;;;-15.09;81.04;97929.91;108366;1282;22648;-84
2024/01/09 03:02:46;;;;;;;15.40;13.70;;;;;;;-15.07;81.20;97932.92;108411;1279;23296;-83
2024/01/09 03:05:13;;;;;;;14.50;11.70;;;;;;;-15.08;81.21;97933.92;108284;1280;138959;-84
2024/01/09 03:07:39;;;;;;;16.40;11.00;;;;;;;-15.07;81.52;97929.92;108387;1283;23269;-84
2024/01/09 03:10:08;;;;;;;13.60;11.00;;;;;;;-15.07;81.80;97923.12;108140;1282;138732;-83
2024/01/09 03:12:35;;;;;;;16.30;12.30;;;;;;;-15.08;81.70;97930.59;109901;1277;22151;-84
2024/01/09 03:15:02;;;;;;;16.20;12.70;;;;;;;-15.06;81.76;97932.60;109518;1275;25509;-85
2024/01/09 03:17:28;;;;;;;15.70;11.70;;;;;;;-15.04;81.58;97930.77;108354;1271;137568;-84
2024/01/09 03:19:55;;;;;;;17.60;13.20;;;;;;;-15.02;81.44;97932.45;108382;1277;22585;-84
2024/01/09 03:22:22;;;;;;;11.70;10.40;;;;;;;-14.99;81.42;97930.47;108325;1281;138840;-84
2024/01/09 03:24:48;;;;;;;12.70;11.40;;;;;;;-14.99;81.43;97929.64;108404;1279;22546;-84
2024/01/09 03:27:15;;;;;;;13.80;12.10;;;;;;;-15.00;81.37;97928.80;108399;1282;22527;-85
2024/01/09 03:29:41;;;;;;;11.70;10.60;;;;;;;-15.02;81.65;97933.78;108362;1280;138883;-85
2024/01/09 03:32:08;;;;;;;13.10;11.70;;;;;;;-15.05;81.12;97934.59;108349;1282;22520;-84
2024/01/09 03:34:35;;;;;;;17.00;12.60;;;;;;;-15.06;81.82;97931.77;108403;1281;138799;-84
2024/01/09 03:37:02;;;;;;;13.40;12.00;;;;;;;-15.06;81.82;97927.61;108359;1283;22530;-84
2024/01/09 03:39:28;;;;;;;13.50;11.60;;;;;;;-15.06;81.60;97932.59;108364;1278;22567;-85
2024/01/09 03:41:55;;;;;;;12.60;11.40;;;;;;;-15.03;81.72;97922.98;108269;1283;139040;-85
2024/01/09 03:44:21;;;;;;;15.20;11.30;;;;;;;-15.03;81.28;97926.80;108391;1277;22524;-85
2024/01/09 03:46:48;;;;;;;15.00;13.20;;;;;;;-15.06;81.68;97925.95;108164;1283;138877;-84
2024/01/09 03:49:14;;;;;;;13.40;11.60;;;;;;;-15.03;81.92;97922.98;108311;1283;23792;-85
2024/01/09 03:51:41;;;;;;;18.20;12.50;;;;;;;-15.01;81.89;97922.15;108390;1283;22539;-84
2024/01/09 03:54:07;;;;;;;11.80;10.60;;;;;;;-15.02;81.66;97921.81;108178;1273;138909;-84
2024/01/09 03:56:34;;;;;;;11.80;10.60;;;;;;;-15.02;81.33;97930.13;108324;1276;22553;-84
2024/01/09 03:59:00;;;;;;;15.70;12.80;;;;;;;-15.07;81.49;97932.10;108272;1281;138904;-84
2024/01/09 04:01:27;;;;;;;14.40;11.20;;;;;;;-15.10;81.79;97927.92;108424;1280;22557;-85
2024/01/09 04:03:54;;;;;;;11.90;10.80;;;;;;;-15.11;81.30;97930.06;108571;1274;24221;-84
2024/01/09 04:06:20;;;;;;;11.10;10.10;;;;;;;-15.13;81.43;97928.38;108307;1282;25523;-84
2024/01/09 04:08:48;;;;;;;11.50;10.50;;;;;;;-15.14;81.52;97925.06;108389;1281;22520;-84
2024/01/09 04:11:16;;;;;;;13.00;10.50;;;;;;;-15.17;81.63;97926.86;109768;1277;139073;-85
2024/01/09 04:13:42;;;;;;;11.80;10.60;;;;;;;-15.17;81.47;97930.68;109375;1277;22533;-85
2024/01/09 04:16:11;;;;;;;11.10;10.00;;;;;;;-15.18;81.68;97931.34;108279;1275;139268;-85
2024/01/09 04:18:37;;;;;;;10.90;9.90;;;;;;;-15.16;81.67;97936.01;108460;1278;22595;-84
2024/01/09 04:21:04;;;;;;;12.30;11.10;;;;;;;-15.15;81.58;97935.67;108473;1281;22523;-84
2024/01/09 04:23:30;;;;;;;15.80;11.90;;;;;;;-15.16;81.22;97936.17;108427;1264;138682;-84
2024/01/09 04:25:57;;;;;;;14.60;11.30;;;;;;;-15.16;81.35;97930.02;108482;1282;22578;-85
2024/01/09 04:28:24;;;;;;;17.40;11.40;;;;;;;-15.15;81.89;97925.86;108453;1281;138940;-83
2024/01/09 04:30:50;;;;;;;18.00;11.60;;;;;;;-15.11;81.70;97925.76;108430;1282;23283;-84
2024/01/09 04:33:17;;;;;;;11.50;10.30;;;;;;;-15.09;81.89;97927.09;108409;1278;26520;-84
2024/01/09 04:35:43;;;;;;;11.50;10.00;;;;;;;-15.04;81.89;97925.13;108473;1281;137561;-84
2024/01/09 04:38:10;;;;;;;11.30;10.20;;;;;;;-15.08;81.76;97927.92;108432;1277;22861;-85
2024/01/09 04:40:37;;;;;;;11.00;9.80;;;;;;;-15.10;81.74;97927.43;108285;1275;138869;-84
2024/01/09 04:43:03;;;;;;;11.30;10.30;;;;;;;-15.11;81.76;97922.10;108288;1280;22553;-84
2024/01/09 04:45:30;;;;;;;10.40;8.80;;;;;;;-15.06;81.89;97921.30;108484;1282;22527;-84
2024/01/09 04:47:57;;;;;;;11.50;9.60;;;;;;;-15.04;82.15;97924.80;108331;1281;138706;-84
2024/01/09 04:50:23;;;;;;;10.20;9.30;;;;;;;-15.07;81.99;97920.63;108397;1282;25435;-84
2024/01/09 04:52:50;;;;;;;10.80;9.80;;;;;;;-15.10;81.76;97914.79;108296;1282;138468;-84
2024/01/09 04:55:17;;;;;;;9.90;9.10;;;;;;;-15.12;82.34;97911.62;108448;1275;22521;-85
2024/01/09 04:57:43;;;;;;;9.80;8.90;;;;;;;-15.09;82.37;97911.96;108421;1282;25281;-84
2024/01/09 05:00:11;;;;;;;10.00;9.20;;;;;;;-15.07;82.72;97914.14;108381;1282;138219;-84
2024/01/09 05:02:37;;;;;;;10.20;9.20;;;;;;;-15.04;83.15;97916.31;108521;1275;22543;-84
2024/01/09 05:05:04;;;;;;;9.70;8.90;;;;;;;-14.97;83.32;97912.54;108421;1281;139120;-84
2024/01/09 05:07:30;;;;;;;9.80;8.90;;;;;;;-14.88;83.24;97919.24;108475;1277;22558;-84
2024/01/09 05:10:00;;;;;;;11.40;10.20;;;;;;;-14.87;82.91;97916.59;108350;1282;139245;-84
2024/01/09 05:12:31;;;;;;;11.50;9.60;;;;;;;-14.81;83.29;97922.27;108442;1263;22568;-85
2024/01/09 05:14:57;;;;;;;9.50;8.80;;;;;;;-14.77;83.16;97918.48;108431;1282;22528;-85
2024/01/09 05:17:24;;;;;;;9.90;9.20;;;;;;;-14.82;82.31;97919.77;108322;1282;138567;-84
2024/01/09 05:19:50;;;;;;;10.60;9.60;;;;;;;-14.89;81.86;97929.22;108365;1277;24284;-85
2024/01/09 05:22:17;;;;;;;15.90;13.00;;;;;;;-14.96;81.56;97931.66;108199;1275;139248;-83
2024/01/09 05:24:43;;;;;;;22.00;13.10;;;;;;;-15.00;81.77;97936.45;108341;1277;22550;-83
2024/01/09 05:27:10;;;;;;;29.20;14.60;;;;;;;-15.02;81.44;97938.94;108439;1283;24821;-83
2024/01/09 05:29:38;;;;;;;24.60;14.80;;;;;;;-15.07;81.28;97937.41;108279;1282;139088;-85
2024/01/09 05:32:06;;;;;;;30.20;16.40;;;;;;;-15.12;80.95;97942.70;108350;1281;24221;-84
2024/01/09 05:34:33;;;;;;;29.80;17.40;;;;;;;-15.18;80.72;97942.31;108337;1282;139325;-85
2024/01/09 05:36:59;;;;;;;37.70;19.70;;;;;;;-15.27;80.26;97947.40;109290;1278;23788;-84
2024/01/09 05:39:26;;;;;;;39.60;20.10;;;;;;;-15.32;80.60;97947.84;108453;1282;22634;-84
2024/01/09 05:41:53;;;;;;;28.60;17.90;;;;;;;-15.37;80.38;97951.80;108300;1277;138622;-84
2024/01/09 05:44:20;;;;;;;32.00;18.60;;;;;;;-15.43;80.24;97957.08;108395;1282;23779;-84
2024/01/09 05:46:46;;;;;;;21.60;15.90;;;;;;;-15.45;80.46;97955.89;108341;1280;138711;-84
2024/01/09 05:49:13;;;;;;;19.60;14.50;;;;;;;-15.51;80.31;97958.48;108375;1276;22579;-85
2024/01/09 05:51:40;;;;;;;16.50;13.20;;;;;;;-15.57;80.34;97962.92;108369;1282;24142;-85
2024/01/09 05:54:06;;;;;;;14.40;12.90;;;;;;;-15.58;80.86;97971.73;108262;1281;138788;-85
2024/01/09 05:56:33;;;;;;;18.40;14.00;;;;;;;-15.59;80.52;97973.89;108293;1283;23853;-84
2024/01/09 05:58:59;;;;;;;14.90;12.40;;;;;;;-15.56;81.54;97974.57;108336;1271;139165;-84
2024/01/09 06:01:26;;;;;;;11.80;10.80;;;;;;;-15.48;81.15;97973.45;108330;1283;22971;-84
2024/01/09 06:03:52;;;;;;;13.00;10.70;;;;;;;-15.52;80.89;97981.41;108428;1282;22568;-84
2024/01/09 06:06:19;;;;;;;20.10;13.50;;;;;;;-15.53;80.73;97981.89;108252;1283;22599;-83
2024/01/09 06:08:48;;;;;;;20.80;14.60;;;;;;;-15.56;80.60;97987.19;108409;1282;22529;-84
2024/01/09 06:11:19;;;;;;;41.50;20.30;;;;;;;-15.62;80.19;97987.65;108284;1283;138774;-84
2024/01/09 06:13:46;;;;;;;18.60;14.80;;;;;;;-15.68;80.35;97991.24;108414;1283;22523;-85
2024/01/09 06:16:12;;;;;;;15.60;11.80;;;;;;;-15.67;81.08;97994.56;108328;1275;139284;-84
2024/01/09 06:18:39;;;;;;;18.00;14.30;;;;;;;-15.66;80.95;97994.90;108346;1283;22538;-84
2024/01/09 06:21:06;;;;;;;44.80;21.60;;;;;;;-15.69;80.56;98000.52;108387;1283;22524;-84
2024/01/09 06:23:33;;;;;;;47.10;24.40;;;;;;;-15.70;80.91;98005.33;108354;1276;138695;-84
2024/01/09 06:25:59;;;;;;;59.90;27.90;;;;;;;-15.72;80.88;98000.00;108430;1283;25359;-84
2024/01/09 06:28:26;;;;;;;45.00;22.80;;;;;;;-15.70;80.81;97997.20;108284;1282;139196;-84
2024/01/09 06:30:52;;;;;;;43.80;23.80;;;;;;;-15.68;80.72;97998.04;108440;1283;22595;-84
2024/01/09 06:33:19;;;;;;;57.30;28.50;;;;;;;-15.68;80.43;98001.70;108427;1283;25446;-84
2024/01/09 06:35:46;;;;;;;50.60;24.40;;;;;;;-15.67;80.14;98003.70;108384;1282;139146;-84
2024/01/09 06:38:12;;;;;;;43.80;22.70;;;;;;;-15.73;80.12;98003.65;108466;1282;22558;-84
2024/01/09 06:40:39;;;;;;;38.20;21.30;;;;;;;-15.76;80.43;98008.60;108309;1277;138896;-84
2024/01/09 06:43:07;;;;;;;36.10;21.20;;;;;;;-15.77;80.56;98008.10;108418;1283;22549;-84
2024/01/09 06:45:34;;;;;;;26.80;17.30;;;;;;;-15.75;80.22;98008.45;108414;1283;22547;-84
2024/01/09 06:48:01;;;;;;;18.10;13.30;;;;;;;-15.74;80.68;98012.27;108330;1282;139432;-84
2024/01/09 06:50:28;;;;;;;20.70;13.30;;;;;;;-15.78;80.37;98010.07;108437;1279;22592;-84
2024/01/09 06:52:55;;;;;;;14.20;12.80;;;;;;;-15.80;80.10;98005.39;108290;1282;138701;-84
2024/01/09 06:55:21;;;;;;;23.10;14.10;;;;;;;-15.79;80.21;98009.04;108304;1283;22527;-83
2024/01/09 06:57:48;;;;;;;27.10;17.00;;;;;;;-15.79;80.38;98011.37;108470;1282;22595;-83
2024/01/09 07:00:15;;;;;;;20.60;17.10;;;;;;;-15.79;80.40;98011.55;108388;1282;138927;-83
2024/01/09 07:02:42;;;;;;;21.50;17.40;;;;;;;-15.76;80.63;98010.92;109406;1280;22569;-83
2024/01/09 07:05:08;;;;;;;25.90;17.10;;;;;;;-15.73;80.70;98009.46;108346;1275;138692;-82
2024/01/09 07:07:35;;;;;;;20.50;15.90;;;;;;;-15.66;80.90;98014.50;108107;1280;140186;-83
2024/01/09 07:10:04;;;;;;;28.20;18.90;;;;;;;-15.59;81.39;98020.73;108486;1282;22511;-84
2024/01/09 07:12:30;;;;;;;24.80;17.20;;;;;;;-15.59;80.87;98020.71;108363;1284;22581;-84
2024/01/09 07:14:57;;;;;;;35.90;19.00;;;;;;;-15.54;81.46;98022.75;108336;1283;138500;-84
2024/01/09 07:17:23;;;;;;;41.20;23.40;;;;;;;-15.47;81.56;98024.96;108408;1283;22534;-84
2024/01/09 07:19:50;;;;;;;28.50;20.00;;;;;;;-15.48;81.59;98029.95;108244;1282;138697;-83
2024/01/09 07:22:16;;;;;;;39.40;22.80;;;;;;;-15.46;81.27;98031.48;108340;1283;24836;-83
2024/01/09 07:24:43;;;;;;;30.70;21.40;;;;;;;-15.47;81.38;98035.63;108209;1270;138960;-83
2024/01/09 07:27:09;;;;;;;29.10;16.00;;;;;;;-15.43;81.36;98035.33;108356;1283;22527;-83
2024/01/09 07:29:36;;;;;;;24.50;17.00;;;;;;;-15.43;81.86;98040.48;108387;1278;26563;-83
2024/01/09 07:32:03;;;;;;;27.20;16.00;;;;;;;-15.46;81.32;98039.11;108343;1282;138733;-83
2024/01/09 07:34:30;;;;;;;26.70;19.20;;;;;;;-15.49;80.97;98039.73;108439;1282;24251;-83
2024/01/09 07:36:56;;;;;;;28.90;19.80;;;;;;;-15.48;80.86;98041.57;108369;1282;139298;-83
2024/01/09 07:39:23;;;;;;;34.30;18.90;;;;;;;-15.47;80.99;98042.42;108244;1275;22542;-83
2024/01/09 07:41:50;;;;;;;31.20;17.90;;;;;;;-15.48;80.91;98042.58;108452;1283;22539;-83
2024/01/09 07:44:17;;;;;;;32.70;21.80;;;;;;;-15.51;81.05;98042.71;108295;1273;138640;-83
2024/01/09 07:46:44;;;;;;;29.90;19.10;;;;;;;-15.47;81.04;98043.58;108421;1275;25306;-83
2024/01/09 07:49:10;;;;;;;21.00;16.10;;;;;;;-15.41;81.08;98040.33;108297;1282;139470;-83
2024/01/09 07:51:37;;;;;;;21.40;15.90;;;;;;;-15.40;80.92;98043.00;108410;1281;25400;-83
2024/01/09 07:54:04;;;;;;;25.10;15.60;;;;;;;-15.44;80.79;98041.46;108354;1281;22523;-83
2024/01/09 07:56:30;;;;;;;23.90;16.90;;;;;;;-15.43;81.04;98052.11;108318;1283;138731;-83
2024/01/09 07:58:57;;;;;;;23.30;16.90;;;;;;;-15.43;81.07;98049.45;108264;1274;25297;-84
2024/01/09 08:01:24;;;;;;;21.60;17.10;;;;;;;-15.38;81.33;98048.83;108309;1283;140414;-84
2024/01/09 08:03:51;;;;;;;21.70;15.80;;;;;;;-15.32;80.87;98056.20;108429;1282;23854;-84
2024/01/09 08:06:17;;;;;;;16.90;14.60;;;;;;;-15.27;81.08;98056.77;108392;1283;22594;-84
2024/01/09 08:08:44;;;;;;;23.30;15.80;;;;;;;-15.23;81.04;98058.63;108284;1282;139311;-83
2024/01/09 08:11:12;;;;;;;16.90;13.80;;;;;;;-15.24;80.47;98061.27;108302;1284;22568;-84
2024/01/09 08:13:40;;;;;;;62.50;25.10;;;;;;;-15.27;80.51;98059.42;108368;1282;138906;-84
2024/01/09 08:16:08;;;;;;;106.30;42.00;;;;;;;-15.28;80.54;98064.07;108359;1283;22579;-84
2024/01/09 08:18:35;;;;;;;76.60;31.70;;;;;;;-15.29;80.64;98066.04;108467;1282;23132;-84
2024/01/09 08:21:01;;;;;;;65.60;32.70;;;;;;;-15.24;80.83;98066.10;108216;1283;138530;-84
2024/01/09 08:23:28;;;;;;;55.90;28.60;;;;;;;-15.23;80.75;98074.58;108424;1273;22583;-84
2024/01/09 08:25:55;;;;;;;70.80;32.20;;;;;;;-15.24;80.64;98073.91;108311;1277;138753;-84
2024/01/09 08:28:21;;;;;;;69.20;32.20;;;;;;;-15.25;80.72;98070.08;108328;1282;23027;-84
2024/01/09 08:30:48;;;;;;;64.50;31.60;;;;;;;-15.27;80.54;98073.22;108305;1283;138916;-84
2024/01/09 08:33:15;;;;;;;65.30;32.10;;;;;;;-15.30;80.55;98076.00;108306;1278;22539;-84
2024/01/09 08:35:43;;;;;;;21.20;17.40;;;;;;;-15.28;80.98;98072.05;108327;1283;22523;-84
2024/01/09 08:38:11;;;;;;;20.50;16.70;;;;;;;-15.26;81.03;98069.74;108251;1283;138770;-84
2024/01/09 08:40:37;;;;;;;17.30;15.10;;;;;;;-15.23;82.01;98068.94;108361;1283;22552;-84
2024/01/09 08:43:04;;;;;;;19.70;13.40;;;;;;;-15.14;82.31;98070.67;108260;1283;139437;-84
2024/01/09 08:45:31;;;;;;;15.70;12.60;;;;;;;-15.01;83.08;98075.79;108333;1282;23263;-84
2024/01/09 08:47:57;;;;;;;14.40;11.80;;;;;;;-14.91;83.08;98074.05;108353;1278;22530;-85
2024/01/09 08:50:24;;;;;;;16.40;12.20;;;;;;;-14.88;82.89;98074.73;108237;1284;139301;-84
2024/01/09 08:52:52;;;;;;;19.60;13.60;;;;;;;-14.81;83.08;98075.13;108441;1283;24186;-84
2024/01/09 08:55:18;;;;;;;13.50;12.20;;;;;;;-14.77;83.39;98078.66;108342;1276;139460;-84
2024/01/09 08:57:45;;;;;;;16.00;12.20;;;;;;;-14.76;82.83;98079.84;108422;1277;22584;-84
2024/01/09 09:00:13;;;;;;;17.10;12.60;;;;;;;-14.78;82.52;98084.31;108387;1274;25006;-85
2024/01/09 09:02:39;;;;;;;20.80;13.70;;;;;;;-14.73;82.94;98083.19;108366;1283;138774;-84
2024/01/09 09:05:06;;;;;;;14.80;12.70;;;;;;;-14.67;82.52;98084.71;108432;1268;22530;-84
2024/01/09 09:07:33;;;;;;;26.20;15.60;;;;;;;-14.66;82.75;98083.06;108398;1283;139067;-85
2024/01/09 09:10:00;;;;;;;15.60;13.10;;;;;;;-14.67;82.54;98080.72;108316;1277;22559;-84
2024/01/09 09:12:28;;;;;;;28.00;17.70;;;;;;;-14.66;82.70;98082.41;108416;1280;22537;-85
2024/01/09 09:14:55;;;;;;;23.00;15.70;;;;;;;-14.60;82.93;98083.30;108268;1283;138831;-83
2024/01/09 09:17:22;;;;;;;25.00;16.60;;;;;;;-14.52;83.15;98083.17;108431;1277;22613;-84
2024/01/09 09:19:48;;;;;;;25.50;17.00;;;;;;;-14.45;83.21;98083.74;108228;1283;138906;-83
2024/01/09 09:22:15;;;;;;;24.40;16.20;;;;;;;-14.45;83.19;98081.75;108307;1277;23227;-84
2024/01/09 09:24:42;;;;;;;23.50;16.40;;;;;;;-14.41;83.26;98081.91;108241;1283;138915;-84
2024/01/09 09:27:09;;;;;;;20.20;14.30;;;;;;;-14.32;83.62;98088.13;108452;1283;22537;-84
2024/01/09 09:29:35;;;;;;;21.80;14.20;;;;;;;-14.27;83.61;98086.83;108255;1283;22544;-84
2024/01/09 09:32:02;;;;;;;29.60;17.60;;;;;;;-14.23;83.63;98084.52;108083;1279;138662;-84
2024/01/09 09:34:29;;;;;;;27.00;18.70;;;;;;;-14.11;84.01;98083.92;108308;1282;23205;-83
2024/01/09 09:36:55;;;;;;;25.80;16.10;;;;;;;-13.98;84.20;98082.50;108204;1282;137777;-84
2024/01/09 09:39:22;;;;;;;25.80;17.50;;;;;;;-13.90;84.23;98082.21;108412;1283;23101;-84
2024/01/09 09:41:52;;;;;;;21.50;15.90;;;;;;;-13.88;83.97;98082.55;108336;1270;22539;-84
2024/01/09 09:44:21;;;;;;;30.50;19.70;;;;;;;-13.85;83.92;98079.56;108277;1282;138751;-84
2024/01/09 09:46:47;;;;;;;29.60;18.40;;;;;;;-13.77;84.44;98082.77;108354;1283;22538;-83
2024/01/09 09:49:14;;;;;;;21.50;16.10;;;;;;;-13.69;84.33;98081.30;108325;1282;139515;-84
2024/01/09 09:51:41;;;;;;;24.50;15.80;;;;;;;-13.69;84.18;98081.80;108348;1283;22992;-84
2024/01/09 09:54:07;;;;;;;20.70;15.50;;;;;;;-13.71;84.04;98088.28;108406;1282;25628;-84
2024/01/09 09:56:34;;;;;;;21.00;15.90;;;;;;;-13.73;84.09;98090.45;108204;1282;138758;-84
2024/01/09 09:59:01;;;;;;;26.30;16.60;;;;;;;-13.73;84.22;98091.29;108381;1282;23181;-85
2024/01/09 10:01:28;;;;;;;31.60;18.40;;;;;;;-13.63;84.72;98089.68;108225;1282;138727;-85
2024/01/09 10:04:13;;;;;;;29.40;17.40;;;;;;;-13.52;85.06;98089.21;108396;1275;22576;-84
2024/01/09 10:06:40;;;;;;;21.90;16.30;;;;;;;-13.37;85.13;98086.26;108230;1278;139016;-84
2024/01/09 10:09:10;;;;;;;30.00;17.70;;;;;;;-13.35;84.40;98084.92;108337;1278;23781;-85
2024/01/09 10:11:37;;;;;;;26.20;17.90;;;;;;;-13.30;84.44;98082.95;108315;1280;22559;-84
2024/01/09 10:14:04;;;;;;;38.00;22.90;;;;;;;-13.27;84.28;98079.63;108368;1263;138921;-85
2024/01/09 10:16:49;;;;;;;31.60;18.60;;;;;;;-13.25;84.33;98073.13;108330;1282;25438;-84
2024/01/09 10:19:17;;;;;;;31.40;21.50;;;;;;;-13.17;84.80;98062.12;108284;1282;139035;-85
2024/01/09 10:21:43;;;;;;;31.70;21.20;;;;;;;-13.05;85.19;98066.95;108363;1281;24229;-85
2024/01/09 10:24:10;;;;;;;23.90;16.70;;;;;;;-12.94;85.34;98056.64;108423;1281;22535;-85
2024/01/09 10:26:36;;;;;;;27.60;17.20;;;;;;;-12.92;84.94;98052.30;108255;1281;138803;-85
2024/01/09 10:29:03;;;;;;;29.60;18.50;;;;;;;-12.90;84.79;98057.63;108313;1282;25311;-85
2024/01/09 10:31:31;;;;;;;25.30;18.00;;;;;;;-12.90;84.68;98052.96;108255;1281;138702;-85
2024/01/09 10:33:58;;;;;;;22.60;15.90;;;;;;;-12.85;85.21;98051.14;108453;1281;24305;-85
2024/01/09 10:36:24;;;;;;;24.40;15.40;;;;;;;-12.77;85.20;98051.14;108337;1280;23336;-85
2024/01/09 10:38:51;;;;;;;26.60;16.20;;;;;;;-12.74;84.86;98047.97;108382;1281;138955;-85
2024/01/09 10:41:18;;;;;;;19.80;14.40;;;;;;;-12.68;85.12;98046.47;108399;1277;22527;-85
2024/01/09 10:43:47;;;;;;;14.50;11.70;;;;;;;-12.64;85.06;98042.64;109552;1277;139427;-85
2024/01/09 10:46:14;;;;;;;25.20;16.90;;;;;;;-12.57;85.78;98043.12;108298;1282;22502;-85
2024/01/09 10:48:41;;;;;;;26.50;17.50;;;;;;;-12.47;86.09;98046.63;108232;1277;138911;-85
2024/01/09 10:51:10;;;;;;;24.10;17.00;;;;;;;-12.37;85.91;98039.10;108403;1281;25301;-85
2024/01/09 10:53:37;;;;;;;30.50;19.10;;;;;;;-12.28;85.81;98032.73;109199;1273;22534;-85
2024/01/09 10:56:03;;;;;;;58.70;30.70;;;;;;;-12.19;86.16;98029.89;108342;1271;138725;-85
2024/01/09 10:58:30;;;;;;;59.50;36.40;;;;;;;-12.11;86.77;98031.36;108358;1274;23930;-85